Time;durP1;ratioP1;P1;durP2;ratioP2;P2;SDS_P1;SDS_P2;PMS_P1;PMS_P2;Temp;Humidity;BMP_temperature;BMP_pressure;BME280_temperature;BME280_humidity;BME280_pressure;Samples;Min_cycle;Max_cycle;Signal;HPM_P1;HPM_P2
2021/04/15 00:00:34;;;;;;;12.38;7.07;;;;;;;;;;5052011;28;20049;-78
2021/04/15 00:03:03;;;;;;;14.27;6.93;;;;;;;;;;5049560;28;20076;-78
2021/04/15 00:05:32;;;;;;;15.65;7.10;;;;;;;;;;5051411;28;20136;-78
2021/04/15 00:07:59;;;;;;;14.48;6.93;;;;;;;;;;5052403;28;20072;-77
2021/04/15 00:10:28;;;;;;;13.02;7.68;;;;;;;;;;5051825;28;20041;-77
2021/04/15 00:12:55;;;;;;;15.35;8.13;;;;;;;;;;5053190;28;20052;-78
2021/04/15 00:15:23;;;;;;;15.50;7.97;;;;;;;;;;5053289;28;20150;-78
2021/04/15 00:17:51;;;;;;;11.88;7.55;;;;;;;;;;5044979;28;20083;-78
2021/04/15 00:20:19;;;;;;;14.93;7.85;;;;;;;;;;5051754;28;20041;-78
2021/04/15 00:22:47;;;;;;;15.05;7.82;;;;;;;;;;5051834;28;20107;-78
2021/04/15 00:25:15;;;;;;;14.32;8.38;;;;;;;;;;5051956;28;20059;-78
2021/04/15 00:27:42;;;;;;;12.27;7.50;;;;;;;;;;5051147;28;20646;-78
2021/04/15 00:30:11;;;;;;;12.40;7.00;;;;;;;;;;5051300;28;20055;-78
2021/04/15 00:32:38;;;;;;;14.25;8.20;;;;;;;;;;5051538;28;20041;-78
2021/04/15 00:35:07;;;;;;;13.73;8.07;;;;;;;;;;5051694;28;20053;-78
2021/04/15 00:37:34;;;;;;;11.98;7.93;;;;;;;;;;5039031;28;20052;-78
2021/04/15 00:40:03;;;;;;;14.32;8.30;;;;;;;;;;5052040;28;20045;-78
2021/04/15 00:42:31;;;;;;;13.48;8.40;;;;;;;;;;5051774;28;20041;-77
2021/04/15 00:45:14;;;;;;;13.88;8.02;;;;;;;;;;5051123;28;20459;-78
2021/04/15 00:47:43;;;;;;;14.15;8.00;;;;;;;;;;5046006;28;20083;-77
2021/04/15 00:50:13;;;;;;;15.05;8.38;;;;;;;;;;5050745;28;20088;-77
2021/04/15 00:52:44;;;;;;;15.70;8.80;;;;;;;;;;5051643;28;20081;-78
2021/04/15 00:55:15;;;;;;;14.48;8.18;;;;;;;;;;5051022;28;20045;-78
2021/04/15 00:57:48;;;;;;;13.35;8.07;;;;;;;;;;5049100;28;20045;-78
2021/04/15 01:00:17;;;;;;;12.85;8.02;;;;;;;;;;5051728;28;20045;-78
2021/04/15 01:02:44;;;;;;;14.70;8.15;;;;;;;;;;5049948;28;20081;-78
2021/04/15 01:05:13;;;;;;;14.10;7.82;;;;;;;;;;5032626;23;20409;-68
2021/04/15 01:07:41;;;;;;;15.52;7.97;;;;;;;;;;5013069;28;20056;-68
2021/04/15 01:10:09;;;;;;;14.43;8.23;;;;;;;;;;5010521;28;20104;-68
2021/04/15 01:13:00;;;;;;;15.05;8.57;;;;;;;;;;5009534;28;20092;-70
2021/04/15 01:15:33;;;;;;;15.27;8.45;;;;;;;;;;4993603;28;20132;-69
2021/04/15 01:18:06;;;;;;;21.77;9.20;;;;;;;;;;4995144;28;20050;-69
2021/04/15 01:20:44;;;;;;;13.98;8.25;;;;;;;;;;4990140;28;20077;-68
2021/04/15 01:23:16;;;;;;;17.70;9.10;;;;;;;;;;4974269;28;20054;-68
2021/04/15 01:26:02;;;;;;;17.30;9.77;;;;;;;;;;4983583;28;20051;-69
2021/04/15 01:28:45;;;;;;;17.88;8.93;;;;;;;;;;4978416;28;20587;-68
2021/04/15 01:31:16;;;;;;;16.42;8.63;;;;;;;;;;4979359;28;20050;-68
2021/04/15 01:33:47;;;;;;;16.50;9.80;;;;;;;;;;4985429;28;20050;-69
2021/04/15 01:36:18;;;;;;;16.35;9.45;;;;;;;;;;4990974;28;20046;-68
2021/04/15 01:38:49;;;;;;;18.88;9.43;;;;;;;;;;4983622;28;20054;-68
2021/04/15 01:41:19;;;;;;;15.60;9.25;;;;;;;;;;4991123;28;20133;-68
2021/04/15 01:43:50;;;;;;;14.82;8.48;;;;;;;;;;4991481;28;20043;-68
2021/04/15 01:46:19;;;;;;;16.45;9.52;;;;;;;;;;4987060;28;20088;-68
2021/04/15 01:48:48;;;;;;;14.93;8.95;;;;;;;;;;4984278;28;20783;-68
2021/04/15 01:51:17;;;;;;;17.27;9.38;;;;;;;;;;4981594;28;20057;-68
2021/04/15 01:53:47;;;;;;;18.23;9.68;;;;;;;;;;4991107;28;20137;-68
2021/04/15 01:56:17;;;;;;;16.40;9.73;;;;;;;;;;4990350;28;20143;-68
2021/04/15 01:58:47;;;;;;;15.07;8.80;;;;;;;;;;4990884;28;20145;-68
2021/04/15 02:01:17;;;;;;;21.25;9.60;;;;;;;;;;4990120;28;20498;-68
2021/04/15 02:03:46;;;;;;;17.08;9.07;;;;;;;;;;4991157;28;20137;-68
2021/04/15 02:06:15;;;;;;;17.40;9.18;;;;;;;;;;4991170;28;20042;-68
2021/04/15 02:08:44;;;;;;;15.95;9.18;;;;;;;;;;4990380;28;20505;-68
2021/04/15 02:11:12;;;;;;;18.83;9.57;;;;;;;;;;4988350;28;20089;-68
2021/04/15 02:13:42;;;;;;;18.77;9.35;;;;;;;;;;4991018;28;20085;-67
2021/04/15 02:16:12;;;;;;;15.90;9.65;;;;;;;;;;4991379;28;20486;-67
2021/04/15 02:18:42;;;;;;;14.55;9.27;;;;;;;;;;4990809;28;20113;-67
2021/04/15 02:21:12;;;;;;;19.00;9.75;;;;;;;;;;4985981;28;20506;-68
2021/04/15 02:23:43;;;;;;;20.40;10.73;;;;;;;;;;4990979;28;20112;-67
2021/04/15 02:26:13;;;;;;;19.23;9.90;;;;;;;;;;4990682;28;20553;-67
2021/04/15 02:28:42;;;;;;;15.00;9.45;;;;;;;;;;4990996;28;20050;-67
2021/04/15 02:31:12;;;;;;;18.52;10.18;;;;;;;;;;4991139;28;20457;-67
2021/04/15 02:33:44;;;;;;;17.42;10.00;;;;;;;;;;4991005;28;20050;-67
2021/04/15 02:36:12;;;;;;;20.48;10.80;;;;;;;;;;4979181;28;20054;-67
2021/04/15 02:38:45;;;;;;;17.60;9.98;;;;;;;;;;4990772;28;20080;-68
2021/04/15 02:41:14;;;;;;;18.08;11.68;;;;;;;;;;4991387;28;20054;-67
2021/04/15 02:43:42;;;;;;;18.42;9.88;;;;;;;;;;4990534;28;20169;-67
2021/04/15 02:46:12;;;;;;;20.77;11.13;;;;;;;;;;4990646;28;20058;-68
2021/04/15 02:48:41;;;;;;;17.77;10.98;;;;;;;;;;4990423;28;20112;-67
2021/04/15 02:51:10;;;;;;;16.27;9.45;;;;;;;;;;4979545;28;20114;-68
2021/04/15 02:53:40;;;;;;;19.50;10.50;;;;;;;;;;4989928;28;20438;-68
2021/04/15 02:56:10;;;;;;;18.73;10.13;;;;;;;;;;4989080;28;20089;-67
2021/04/15 02:58:42;;;;;;;23.08;11.70;;;;;;;;;;4990241;28;20070;-68
2021/04/15 03:01:10;;;;;;;21.23;10.63;;;;;;;;;;4990424;28;20078;-67
2021/04/15 03:03:38;;;;;;;21.23;10.25;;;;;;;;;;4989916;28;20137;-68
2021/04/15 03:06:09;;;;;;;15.52;9.75;;;;;;;;;;4990932;28;20076;-69
2021/04/15 03:08:38;;;;;;;19.83;10.55;;;;;;;;;;4990255;28;20097;-69
2021/04/15 03:11:07;;;;;;;16.10;9.27;;;;;;;;;;4990062;28;20081;-68
2021/04/15 03:13:36;;;;;;;20.65;10.30;;;;;;;;;;4990306;28;20086;-68
2021/04/15 03:16:04;;;;;;;22.10;10.02;;;;;;;;;;4990738;28;20057;-67
2021/04/15 03:18:36;;;;;;;24.17;10.50;;;;;;;;;;4990536;28;20145;-68
2021/04/15 03:21:09;;;;;;;16.52;9.32;;;;;;;;;;4980547;28;20050;-68
2021/04/15 03:23:42;;;;;;;14.52;9.20;;;;;;;;;;4986631;28;20442;-68
2021/04/15 03:26:16;;;;;;;18.10;9.35;;;;;;;;;;4987363;28;20495;-67
2021/04/15 03:28:46;;;;;;;21.95;9.65;;;;;;;;;;4980121;28;20447;-67
2021/04/15 03:31:18;;;;;;;20.63;10.57;;;;;;;;;;4985713;28;20146;-67
2021/04/15 03:33:49;;;;;;;18.08;10.75;;;;;;;;;;4989759;28;20558;-68
2021/04/15 03:36:19;;;;;;;19.10;10.25;;;;;;;;;;4990153;28;20133;-67
2021/04/15 03:38:50;;;;;;;17.58;9.85;;;;;;;;;;4979868;28;20133;-68
2021/04/15 03:41:19;;;;;;;17.20;9.85;;;;;;;;;;4992658;28;20049;-67
2021/04/15 03:43:49;;;;;;;20.13;10.07;;;;;;;;;;4983586;28;20129;-67
2021/04/15 03:46:20;;;;;;;18.73;9.77;;;;;;;;;;4991269;28;20057;-67
2021/04/15 03:48:49;;;;;;;18.30;9.07;;;;;;;;;;4984364;28;20660;-67
2021/04/15 03:51:19;;;;;;;16.45;9.18;;;;;;;;;;4986063;28;20678;-67
2021/04/15 03:53:48;;;;;;;17.70;9.65;;;;;;;;;;4990555;28;20042;-67
2021/04/15 03:56:19;;;;;;;16.63;9.30;;;;;;;;;;4985848;28;20137;-67
2021/04/15 03:58:52;;;;;;;17.30;9.73;;;;;;;;;;4989134;28;20158;-67
2021/04/15 04:01:21;;;;;;;16.40;9.55;;;;;;;;;;4981294;28;20070;-67
2021/04/15 04:03:55;;;;;;;17.80;9.30;;;;;;;;;;4982217;28;20086;-67
2021/04/15 04:06:24;;;;;;;19.15;9.85;;;;;;;;;;4979794;28;20051;-67
2021/04/15 04:08:55;;;;;;;17.13;9.18;;;;;;;;;;4983584;28;20514;-67
2021/04/15 04:11:25;;;;;;;20.10;9.82;;;;;;;;;;4993156;28;20121;-67
2021/04/15 04:13:55;;;;;;;19.20;9.55;;;;;;;;;;4988895;28;20576;-68
2021/04/15 04:16:24;;;;;;;17.98;9.35;;;;;;;;;;4993136;28;20102;-68
2021/04/15 04:18:56;;;;;;;15.88;8.98;;;;;;;;;;4992003;28;20112;-67
2021/04/15 04:21:27;;;;;;;18.20;9.18;;;;;;;;;;4992578;28;20042;-68
2021/04/15 04:23:57;;;;;;;19.95;9.05;;;;;;;;;;4987812;28;20150;-67
2021/04/15 04:26:28;;;;;;;17.27;9.18;;;;;;;;;;4992996;28;20077;-67
2021/04/15 04:29:14;;;;;;;21.63;9.70;;;;;;;;;;4992082;28;20073;-67
2021/04/15 04:31:43;;;;;;;16.45;8.75;;;;;;;;;;4990764;28;20136;-67
2021/04/15 04:34:12;;;;;;;18.50;9.20;;;;;;;;;;4991643;28;20081;-67
2021/04/15 04:36:40;;;;;;;20.60;9.32;;;;;;;;;;4992994;28;20117;-67
2021/04/15 04:39:08;;;;;;;17.00;8.93;;;;;;;;;;4992675;28;20050;-67
2021/04/15 04:41:43;;;;;;;19.33;8.93;;;;;;;;;;4991853;28;20133;-67
2021/04/15 04:44:14;;;;;;;21.38;9.52;;;;;;;;;;4993155;28;20144;-67
2021/04/15 04:46:44;;;;;;;24.20;9.77;;;;;;;;;;4992566;28;20518;-67
2021/04/15 04:49:15;;;;;;;17.20;8.52;;;;;;;;;;4982498;28;20054;-67
2021/04/15 04:51:46;;;;;;;18.13;9.63;;;;;;;;;;4992419;28;20125;-67
2021/04/15 04:54:13;;;;;;;14.18;8.10;;;;;;;;;;4983499;28;20105;-67
2021/04/15 04:56:45;;;;;;;14.30;8.75;;;;;;;;;;4990378;28;20161;-67
2021/04/15 04:59:15;;;;;;;21.27;9.00;;;;;;;;;;4981265;28;20529;-68
2021/04/15 05:01:43;;;;;;;13.43;7.60;;;;;;;;;;4983308;28;20125;-68
2021/04/15 05:04:12;;;;;;;16.80;7.75;;;;;;;;;;4987039;28;20068;-69
2021/04/15 05:06:41;;;;;;;15.85;8.73;;;;;;;;;;4988624;28;20086;-68
2021/04/15 05:09:12;;;;;;;19.17;9.50;;;;;;;;;;4986777;28;20120;-69
2021/04/15 05:11:41;;;;;;;20.42;8.70;;;;;;;;;;4982712;28;20578;-69
2021/04/15 05:14:09;;;;;;;19.77;9.13;;;;;;;;;;4987992;28;20060;-68
2021/04/15 05:16:40;;;;;;;17.60;8.35;;;;;;;;;;4995872;28;20140;-69
2021/04/15 05:19:08;;;;;;;15.93;8.70;;;;;;;;;;4988818;28;20058;-69
2021/04/15 05:21:37;;;;;;;18.95;9.02;;;;;;;;;;4991657;28;20537;-70
2021/04/15 05:24:08;;;;;;;18.25;8.25;;;;;;;;;;4984824;28;20054;-68
2021/04/15 05:26:36;;;;;;;17.80;9.70;;;;;;;;;;4987337;28;20118;-68
2021/04/15 05:29:05;;;;;;;13.82;8.07;;;;;;;;;;4986674;28;20082;-68
2021/04/15 05:31:34;;;;;;;16.23;8.32;;;;;;;;;;4981010;28;20050;-69
2021/04/15 05:34:02;;;;;;;16.75;8.43;;;;;;;;;;4987262;28;20061;-70
2021/04/15 05:36:31;;;;;;;18.33;8.30;;;;;;;;;;4987323;28;20046;-68
2021/04/15 05:39:01;;;;;;;13.50;7.75;;;;;;;;;;4990220;28;20520;-71
2021/04/15 05:41:31;;;;;;;14.95;8.07;;;;;;;;;;4983459;28;20081;-69
2021/04/15 05:44:00;;;;;;;18.88;8.20;;;;;;;;;;4985757;28;20085;-69
2021/04/15 05:46:29;;;;;;;13.80;7.57;;;;;;;;;;4985019;28;20452;-68
2021/04/15 05:48:59;;;;;;;17.75;7.32;;;;;;;;;;4994838;28;20050;-68
2021/04/15 05:51:28;;;;;;;15.32;7.38;;;;;;;;;;4972890;28;20161;-69
2021/04/15 05:53:59;;;;;;;15.57;7.60;;;;;;;;;;4987438;28;20551;-69
2021/04/15 05:56:27;;;;;;;15.57;7.63;;;;;;;;;;4984601;28;20050;-69
2021/04/15 05:59:01;;;;;;;11.70;6.68;;;;;;;;;;4981081;28;20497;-68
2021/04/15 06:01:32;;;;;;;15.80;6.55;;;;;;;;;;4984987;28;20167;-69
2021/04/15 06:04:06;;;;;;;16.58;7.10;;;;;;;;;;4937220;28;20061;-68
2021/04/15 06:06:38;;;;;;;11.80;6.70;;;;;;;;;;1301581;28;10022938;-69
2021/04/15 06:09:06;;;;;;;11.77;7.78;;;;;;;;;;3965029;28;10001133;-71
2021/04/15 06:11:42;;;;;;;13.93;7.35;;;;;;;;;;5002562;28;20151;-69
2021/04/15 06:14:11;;;;;;;15.90;7.45;;;;;;;;;;5005780;28;20159;-71
2021/04/15 06:16:40;;;;;;;18.13;7.22;;;;;;;;;;5002811;28;20460;-69
2021/04/15 06:19:12;;;;;;;15.38;7.13;;;;;;;;;;4997357;28;20053;-68
2021/04/15 06:21:43;;;;;;;12.45;6.53;;;;;;;;;;5002978;28;20108;-69
2021/04/15 06:24:12;;;;;;;15.82;7.18;;;;;;;;;;5005139;28;20536;-68
2021/04/15 06:26:42;;;;;;;17.88;7.95;;;;;;;;;;5005573;28;20690;-68
2021/04/15 06:29:11;;;;;;;16.10;7.45;;;;;;;;;;5007768;28;20042;-67
2021/04/15 06:31:41;;;;;;;16.80;8.13;;;;;;;;;;5001567;28;20041;-67
2021/04/15 06:34:11;;;;;;;16.27;7.85;;;;;;;;;;5000135;28;20053;-66
2021/04/15 06:36:40;;;;;;;19.55;8.15;;;;;;;;;;5005500;28;20064;-66
2021/04/15 06:39:15;;;;;;;20.88;7.32;;;;;;;;;;5007853;28;20092;-70
2021/04/15 06:42:12;;;;;;;12.48;6.40;;;;;;;;;;5005357;28;20049;-67
2021/04/15 06:44:55;;;;;;;17.88;7.53;;;;;;;;;;5003812;28;20093;-67
2021/04/15 06:47:49;;;;;;;15.68;7.32;;;;;;;;;;5004594;28;20058;-68
2021/04/15 06:50:20;;;;;;;19.60;8.45;;;;;;;;;;4955401;28;20485;-67
2021/04/15 06:52:54;;;;;;;16.00;7.55;;;;;;;;;;5003948;28;20549;-67
2021/04/15 06:55:29;;;;;;;15.52;7.57;;;;;;;;;;5005728;28;20046;-66
2021/04/15 06:58:07;;;;;;;15.57;8.07;;;;;;;;;;5008354;28;20149;-68
2021/04/15 07:00:42;;;;;;;12.23;7.22;;;;;;;;;;5007206;28;20053;-69
2021/04/15 07:03:12;;;;;;;14.10;7.95;;;;;;;;;;5010511;28;20057;-67
2021/04/15 07:05:46;;;;;;;15.45;8.45;;;;;;;;;;5007563;28;20547;-67
2021/04/15 07:08:22;;;;;;;15.70;8.15;;;;;;;;;;5009036;28;20034;-67
2021/04/15 07:10:56;;;;;;;20.98;8.68;;;;;;;;;;5007255;28;20050;-67
2021/04/15 07:13:32;;;;;;;17.85;7.57;;;;;;;;;;5010379;28;20050;-68
2021/04/15 07:16:11;;;;;;;14.57;7.95;;;;;;;;;;5008958;28;20049;-67
2021/04/15 07:18:56;;;;;;;16.83;7.60;;;;;;;;;;5008930;28;20148;-69
2021/04/15 07:21:39;;;;;;;14.73;7.53;;;;;;;;;;4991544;28;20125;-68
2021/04/15 07:24:28;;;;;;;15.45;7.82;;;;;;;;;;5008898;28;20099;-69
2021/04/15 07:27:23;;;;;;;14.15;7.72;;;;;;;;;;5006537;28;20056;-68
2021/04/15 07:30:03;;;;;;;16.02;8.10;;;;;;;;;;5009437;28;20046;-68
2021/04/15 07:32:38;;;;;;;18.27;7.95;;;;;;;;;;5001872;28;20084;-68
2021/04/15 07:35:23;;;;;;;17.10;8.20;;;;;;;;;;5007327;28;20042;-68
2021/04/15 07:38:14;;;;;;;15.35;7.45;;;;;;;;;;5000822;28;20486;-67
2021/04/15 07:40:47;;;;;;;16.80;8.45;;;;;;;;;;5008889;28;20136;-69
2021/04/15 07:43:32;;;;;;;14.07;8.00;;;;;;;;;;5009586;28;20046;-68
2021/04/15 07:46:07;;;;;;;13.40;7.40;;;;;;;;;;5005771;28;20053;-68
2021/04/15 07:48:52;;;;;;;15.90;7.53;;;;;;;;;;5005334;28;20172;-68
2021/04/15 07:51:39;;;;;;;16.17;8.23;;;;;;;;;;5000396;28;20050;-70
2021/04/15 07:54:25;;;;;;;20.95;8.95;;;;;;;;;;5004646;28;20042;-68
2021/04/15 07:57:09;;;;;;;14.00;7.63;;;;;;;;;;5008952;28;20053;-67
2021/04/15 07:59:46;;;;;;;16.17;8.00;;;;;;;;;;5005866;28;20457;-69
2021/04/15 08:02:44;;;;;;;13.32;7.93;;;;;;;;;;5004562;28;20425;-68
2021/04/15 08:05:31;;;;;;;21.40;8.88;;;;;;;;;;5007547;28;20062;-67
2021/04/15 08:08:11;;;;;;;15.15;7.25;;;;;;;;;;5009374;28;20050;-67
2021/04/15 08:10:52;;;;;;;14.23;7.53;;;;;;;;;;5010528;28;20508;-68
2021/04/15 08:13:31;;;;;;;20.48;8.57;;;;;;;;;;5008940;28;20131;-69
2021/04/15 08:16:16;;;;;;;18.92;8.10;;;;;;;;;;5006585;28;20058;-67
2021/04/15 08:18:49;;;;;;;15.88;7.90;;;;;;;;;;5009296;28;20066;-70
2021/04/15 08:21:35;;;;;;;15.88;7.95;;;;;;;;;;5008723;28;20045;-71
2021/04/15 08:24:16;;;;;;;16.35;8.00;;;;;;;;;;5007016;28;20050;-68
2021/04/15 08:26:58;;;;;;;11.75;7.97;;;;;;;;;;5007012;28;20141;-68
2021/04/15 08:29:34;;;;;;;14.32;7.75;;;;;;;;;;4975019;28;20042;-67
2021/04/15 08:32:05;;;;;;;13.88;8.02;;;;;;;;;;5008762;28;20046;-68
2021/04/15 08:34:37;;;;;;;13.45;8.30;;;;;;;;;;5004187;28;20060;-70
2021/04/15 08:37:11;;;;;;;14.57;7.40;;;;;;;;;;5008161;28;20267;-68
2021/04/15 08:39:46;;;;;;;14.93;7.80;;;;;;;;;;5007532;28;20077;-67
2021/04/15 08:42:31;;;;;;;16.52;7.55;;;;;;;;;;4998945;28;20332;-68
2021/04/15 08:44:59;;;;;;;;;;;;;;;;;;5006423;28;20049;-67
2021/04/15 08:47:36;;;;;;;14.77;7.20;;;;;;;;;;5008482;28;19928;-67
2021/04/15 08:50:09;;;;;;;11.75;6.47;;;;;;;;;;5008480;28;20052;-67
2021/04/15 08:52:40;;;;;;;12.32;7.28;;;;;;;;;;5008377;28;20071;-68
2021/04/15 08:55:20;;;;;;;15.43;6.38;;;;;;;;;;5005261;28;20085;-68
2021/04/15 08:57:56;;;;;;;12.60;7.30;;;;;;;;;;5008638;28;20081;-67
2021/04/15 09:00:31;;;;;;;12.27;6.90;;;;;;;;;;5007195;28;20057;-68
2021/04/15 09:03:05;;;;;;;13.25;7.38;;;;;;;;;;5006423;28;20089;-67
2021/04/15 09:05:36;;;;;;;17.67;7.83;;;;;;;;;;5009217;28;20057;-71
2021/04/15 09:08:09;;;;;;;13.25;7.68;;;;;;;;;;5005556;28;20053;-70
2021/04/15 09:10:41;;;;;;;12.77;7.45;;;;;;;;;;4998599;28;20433;-73
2021/04/15 09:13:15;;;;;;;10.60;7.25;;;;;;;;;;5004482;28;20073;-70
2021/04/15 09:15:51;;;;;;;15.27;7.65;;;;;;;;;;5007134;28;20053;-70
2021/04/15 09:18:22;;;;;;;15.40;7.38;;;;;;;;;;5007389;28;20077;-69
2021/04/15 09:20:57;;;;;;;11.73;7.13;;;;;;;;;;5006756;28;20147;-69
2021/04/15 09:23:34;;;;;;;12.68;6.80;;;;;;;;;;5004164;28;20058;-71
2021/04/15 09:26:10;;;;;;;10.50;6.55;;;;;;;;;;5005925;28;20060;-69
2021/04/15 09:28:40;;;;;;;12.60;6.93;;;;;;;;;;5002282;28;20509;-70
2021/04/15 09:31:15;;;;;;;11.43;6.53;;;;;;;;;;5004195;28;20132;-71
2021/04/15 09:34:11;;;;;;;11.88;6.38;;;;;;;;;;5005611;28;20050;-68
2021/04/15 09:36:47;;;;;;;12.88;8.10;;;;;;;;;;5007329;28;20052;-69
2021/04/15 09:39:21;;;;;;;11.65;6.78;;;;;;;;;;5005153;28;20509;-69
2021/04/15 09:42:00;;;;;;;13.70;6.70;;;;;;;;;;5001061;28;20120;-68
2021/04/15 09:44:58;;;;;;;10.32;6.38;;;;;;;;;;5005248;28;20236;-68
2021/04/15 09:47:32;;;;;;;15.73;6.85;;;;;;;;;;4962756;28;20061;-70
2021/04/15 09:50:06;;;;;;;14.65;6.80;;;;;;;;;;5001976;28;20046;-71
2021/04/15 09:52:52;;;;;;;10.75;6.68;;;;;;;;;;5008088;28;20108;-68
2021/04/15 09:55:31;;;;;;;11.77;6.97;;;;;;;;;;5007252;28;20038;-69
2021/04/15 09:58:05;;;;;;;12.20;6.63;;;;;;;;;;5003675;28;20054;-69
2021/04/15 10:00:36;;;;;;;13.43;7.18;;;;;;;;;;5008555;28;20046;-69
2021/04/15 10:03:09;;;;;;;10.85;6.63;;;;;;;;;;5008272;28;20528;-69
2021/04/15 10:05:42;;;;;;;9.27;6.40;;;;;;;;;;5008565;28;20058;-69
2021/04/15 10:08:13;;;;;;;14.13;6.57;;;;;;;;;;5007498;28;20061;-69
2021/04/15 10:10:44;;;;;;;12.02;6.50;;;;;;;;;;5009893;28;20431;-69
2021/04/15 10:13:21;;;;;;;13.55;6.90;;;;;;;;;;5004126;28;20561;-70
2021/04/15 10:15:51;;;;;;;10.40;6.07;;;;;;;;;;4989292;28;20054;-69
2021/04/15 10:18:28;;;;;;;10.10;6.22;;;;;;;;;;5001478;28;20050;-69
2021/04/15 10:21:03;;;;;;;11.93;6.40;;;;;;;;;;5005783;28;20129;-69
2021/04/15 10:23:41;;;;;;;8.60;5.22;;;;;;;;;;5008752;28;20054;-69
2021/04/15 10:26:17;;;;;;;8.70;5.22;;;;;;;;;;4989632;28;20050;-69
2021/04/15 10:28:52;;;;;;;10.98;5.43;;;;;;;;;;5007214;28;20510;-69
2021/04/15 10:31:25;;;;;;;7.85;5.50;;;;;;;;;;5006577;28;20161;-69
2021/04/15 10:34:04;;;;;;;6.90;4.63;;;;;;;;;;5009500;28;20073;-69
2021/04/15 10:36:52;;;;;;;6.90;4.70;;;;;;;;;;5008793;28;20046;-69
2021/04/15 10:39:43;;;;;;;8.43;4.80;;;;;;;;;;4958416;28;20085;-68
2021/04/15 10:42:29;;;;;;;6.15;4.10;;;;;;;;;;4991741;28;20120;-69
2021/04/15 10:45:08;;;;;;;5.35;4.03;;;;;;;;;;4991274;28;20050;-69
2021/04/15 10:47:41;;;;;;;8.48;4.53;;;;;;;;;;4994009;28;20415;-69
2021/04/15 10:50:13;;;;;;;5.38;3.55;;;;;;;;;;5003705;28;20050;-68
2021/04/15 10:52:47;;;;;;;5.45;3.30;;;;;;;;;;5010788;28;20100;-69
2021/04/15 10:55:22;;;;;;;3.72;2.83;;;;;;;;;;5013101;28;20061;-68
2021/04/15 10:57:50;;;;;;;7.13;4.05;;;;;;;;;;5005584;28;20062;-69
2021/04/15 11:00:21;;;;;;;7.93;3.60;;;;;;;;;;4993729;28;20062;-69
2021/04/15 11:02:49;;;;;;;4.03;3.40;;;;;;;;;;4992019;28;20063;-68
2021/04/15 11:05:20;;;;;;;5.55;3.83;;;;;;;;;;4990289;28;20153;-69
2021/04/15 11:07:49;;;;;;;4.75;3.92;;;;;;;;;;4998301;28;20053;-70
2021/04/15 11:10:23;;;;;;;6.18;3.50;;;;;;;;;;5007394;28;20238;-69
2021/04/15 11:13:02;;;;;;;5.10;3.42;;;;;;;;;;4999128;28;20042;-69
2021/04/15 11:15:38;;;;;;;3.88;3.45;;;;;;;;;;5009970;28;20493;-69
2021/04/15 11:18:08;;;;;;;5.63;4.07;;;;;;;;;;5009624;28;20056;-70
2021/04/15 11:20:41;;;;;;;8.10;4.00;;;;;;;;;;5010332;28;20093;-70
2021/04/15 11:23:11;;;;;;;7.05;3.53;;;;;;;;;;5011031;28;20046;-69
2021/04/15 11:25:41;;;;;;;5.75;3.75;;;;;;;;;;4999662;28;20220;-70
2021/04/15 11:28:10;;;;;;;10.20;4.10;;;;;;;;;;5009990;28;20128;-70
2021/04/15 11:30:41;;;;;;;4.30;3.15;;;;;;;;;;5011293;28;20042;-69
2021/04/15 11:33:33;;;;;;;7.40;4.35;;;;;;;;;;5006670;28;20053;-69
2021/04/15 11:36:12;;;;;;;5.43;3.38;;;;;;;;;;5008686;28;20054;-69
2021/04/15 11:38:41;;;;;;;5.10;3.58;;;;;;;;;;5009533;28;20056;-69
2021/04/15 11:41:21;;;;;;;6.53;4.63;;;;;;;;;;5010365;28;20042;-69
2021/04/15 11:43:49;;;;;;;5.60;3.92;;;;;;;;;;4990479;28;20054;-69
2021/04/15 11:46:19;;;;;;;9.88;5.03;;;;;;;;;;5014413;28;20456;-69
2021/04/15 11:49:04;;;;;;;6.30;3.80;;;;;;;;;;5010376;28;20042;-69
2021/04/15 11:51:35;;;;;;;8.48;4.45;;;;;;;;;;4997029;28;20042;-69
2021/04/15 11:54:03;;;;;;;6.63;3.83;;;;;;;;;;5010322;28;20053;-69
2021/04/15 11:56:46;;;;;;;7.85;3.85;;;;;;;;;;5008084;28;20088;-69
2021/04/15 11:59:15;;;;;;;5.45;3.65;;;;;;;;;;5008077;28;20057;-70
2021/04/15 12:01:43;;;;;;;5.88;3.47;;;;;;;;;;5007714;28;20049;-70
2021/04/15 12:04:15;;;;;;;9.20;4.35;;;;;;;;;;5010124;28;20137;-69
2021/04/15 12:06:44;;;;;;;6.32;4.45;;;;;;;;;;5000580;28;20057;-69
2021/04/15 12:09:14;;;;;;;8.88;4.45;;;;;;;;;;5009646;28;20065;-69
2021/04/15 12:11:52;;;;;;;9.75;4.70;;;;;;;;;;5010722;28;20050;-70
2021/04/15 12:14:22;;;;;;;7.63;4.53;;;;;;;;;;5011611;28;20081;-68
2021/04/15 12:16:53;;;;;;;5.85;4.25;;;;;;;;;;5005146;28;20496;-70
2021/04/15 12:19:23;;;;;;;8.65;3.60;;;;;;;;;;5012774;28;20054;-70
2021/04/15 12:21:54;;;;;;;6.97;4.05;;;;;;;;;;5006868;28;20489;-69
2021/04/15 12:24:24;;;;;;;7.15;4.93;;;;;;;;;;5007205;28;20439;-70
2021/04/15 12:26:57;;;;;;;6.50;4.70;;;;;;;;;;5004299;28;20046;-70
2021/04/15 12:29:28;;;;;;;7.70;4.57;;;;;;;;;;5000421;28;20080;-69
2021/04/15 12:32:01;;;;;;;8.05;5.13;;;;;;;;;;5006142;28;20054;-70
2021/04/15 12:34:50;;;;;;;7.50;4.63;;;;;;;;;;5008808;28;20045;-69
2021/04/15 12:37:21;;;;;;;7.75;4.82;;;;;;;;;;5008046;28;20088;-69
2021/04/15 12:39:54;;;;;;;9.27;5.07;;;;;;;;;;5009250;28;20046;-69
2021/04/15 12:42:24;;;;;;;9.50;5.25;;;;;;;;;;5005388;28;20376;-70
2021/04/15 12:44:54;;;;;;;8.35;4.75;;;;;;;;;;5001582;28;20097;-68
2021/04/15 12:47:22;;;;;;;7.47;4.85;;;;;;;;;;5006953;28;20064;-68
2021/04/15 12:49:51;;;;;;;7.22;4.43;;;;;;;;;;5003628;28;20092;-68
2021/04/15 12:52:19;;;;;;;7.70;4.55;;;;;;;;;;5009735;28;20057;-68
2021/04/15 12:54:47;;;;;;;5.95;4.10;;;;;;;;;;5009102;28;20050;-68
2021/04/15 12:57:16;;;;;;;8.10;4.78;;;;;;;;;;5007022;28;20104;-68
2021/04/15 12:59:46;;;;;;;7.63;4.28;;;;;;;;;;5004017;28;20049;-68
2021/04/15 13:02:19;;;;;;;6.22;4.05;;;;;;;;;;5010115;28;20417;-68
2021/04/15 13:04:50;;;;;;;6.43;4.78;;;;;;;;;;5007687;28;20049;-68
2021/04/15 13:07:31;;;;;;;8.48;4.07;;;;;;;;;;5007339;28;20085;-68
2021/04/15 13:10:19;;;;;;;8.02;4.40;;;;;;;;;;5008787;28;20042;-68
2021/04/15 13:12:47;;;;;;;5.15;4.10;;;;;;;;;;5005067;28;20080;-68
2021/04/15 13:15:30;;;;;;;5.35;3.40;;;;;;;;;;5010192;28;20105;-68
2021/04/15 13:18:00;;;;;;;4.85;3.70;;;;;;;;;;5000392;28;20469;-68
2021/04/15 13:20:37;;;;;;;15.00;4.68;;;;;;;;;;5004983;28;20042;-68
2021/04/15 13:23:32;;;;;;;5.03;3.88;;;;;;;;;;5005790;28;20089;-68
2021/04/15 13:26:19;;;;;;;6.38;3.60;;;;;;;;;;4972690;28;20053;-68
2021/04/15 13:29:14;;;;;;;5.78;3.58;;;;;;;;;;4995810;28;20053;-68
2021/04/15 13:31:44;;;;;;;3.80;3.20;;;;;;;;;;4962176;28;20057;-68
2021/04/15 13:34:14;;;;;;;5.07;3.42;;;;;;;;;;5009547;28;20081;-68
2021/04/15 13:36:43;;;;;;;5.00;3.70;;;;;;;;;;5008360;28;20050;-68
2021/04/15 13:39:27;;;;;;;4.10;3.03;;;;;;;;;;5009397;28;20057;-68
2021/04/15 13:42:00;;;;;;;6.13;2.80;;;;;;;;;;5009344;28;20093;-68
2021/04/15 13:44:50;;;;;;;3.45;2.70;;;;;;;;;;5009252;28;20042;-67
2021/04/15 13:47:33;;;;;;;4.78;2.80;;;;;;;;;;5007434;28;20128;-67
2021/04/15 13:50:02;;;;;;;5.85;2.78;;;;;;;;;;4984960;28;20156;-67
2021/04/15 13:52:34;;;;;;;4.72;2.97;;;;;;;;;;5008700;28;20141;-68
2021/04/15 13:55:17;;;;;;;6.22;3.33;;;;;;;;;;5003695;28;20045;-68
2021/04/15 13:57:46;;;;;;;5.82;3.13;;;;;;;;;;5002861;28;20042;-68
2021/04/15 14:00:35;;;;;;;5.60;3.00;;;;;;;;;;5006212;28;20413;-69
2021/04/15 14:03:03;;;;;;;8.05;3.38;;;;;;;;;;5003452;28;20077;-69
2021/04/15 14:05:33;;;;;;;5.30;3.38;;;;;;;;;;5008198;28;20140;-69
2021/04/15 14:08:30;;;;;;;6.57;3.05;;;;;;;;;;5002584;28;20073;-69
2021/04/15 14:10:58;;;;;;;4.75;3.03;;;;;;;;;;4971168;28;20057;-69
2021/04/15 14:13:27;;;;;;;5.65;2.88;;;;;;;;;;4999574;28;20052;-69
2021/04/15 14:15:56;;;;;;;5.30;2.65;;;;;;;;;;5007588;28;20053;-69
2021/04/15 14:18:26;;;;;;;4.78;3.08;;;;;;;;;;4998296;28;20049;-69
2021/04/15 14:20:56;;;;;;;5.55;3.03;;;;;;;;;;5004975;28;20140;-69
2021/04/15 14:23:27;;;;;;;4.60;3.00;;;;;;;;;;5009038;28;20607;-68
2021/04/15 14:26:02;;;;;;;5.72;3.05;;;;;;;;;;5007542;28;20054;-69
2021/04/15 14:28:31;;;;;;;4.88;3.28;;;;;;;;;;4997524;28;20048;-68
2021/04/15 14:31:12;;;;;;;10.23;3.50;;;;;;;;;;5008604;28;20410;-68
2021/04/15 14:33:40;;;;;;;6.80;3.38;;;;;;;;;;5004885;28;20092;-68
2021/04/15 14:36:19;;;;;;;6.80;2.97;;;;;;;;;;5004367;28;20440;-68
2021/04/15 14:38:47;;;;;;;6.50;3.20;;;;;;;;;;5000229;28;20413;-68
2021/04/15 14:41:15;;;;;;;7.88;3.45;;;;;;;;;;4996869;28;20061;-69
2021/04/15 14:43:43;;;;;;;9.57;3.55;;;;;;;;;;4999887;28;20489;-69
2021/04/15 14:46:13;;;;;;;7.50;4.18;;;;;;;;;;4999219;28;20127;-68
2021/04/15 14:48:41;;;;;;;7.93;4.18;;;;;;;;;;5005621;28;20038;-69
2021/04/15 14:51:12;;;;;;;4.78;3.38;;;;;;;;;;5003868;28;20574;-69
2021/04/15 14:53:41;;;;;;;6.55;3.35;;;;;;;;;;4997905;28;20046;-69
2021/04/15 14:56:12;;;;;;;8.63;3.15;;;;;;;;;;4997981;28;20042;-69
2021/04/15 14:58:40;;;;;;;4.68;3.47;;;;;;;;;;4999892;28;20125;-69
2021/04/15 15:01:12;;;;;;;6.32;3.00;;;;;;;;;;5000722;28;20469;-69
2021/04/15 15:03:41;;;;;;;6.25;3.10;;;;;;;;;;4998039;28;20052;-70
2021/04/15 15:06:12;;;;;;;3.85;3.05;;;;;;;;;;5001204;28;20109;-71
2021/04/15 15:08:41;;;;;;;4.93;2.67;;;;;;;;;;4999622;28;20050;-71